sensor_id;sensor_type;location;lat;lon;timestamp;temperature;humidity
7902;DHT22;3996;49.674;10.716;2024-02-14T00:01:34;2.70;45.10
7902;DHT22;3996;49.674;10.716;2024-02-14T00:04:02;2.70;45.50
7902;DHT22;3996;49.674;10.716;2024-02-14T00:06:28;2.60;45.80
7902;DHT22;3996;49.674;10.716;2024-02-14T00:08:53;2.60;46.10
7902;DHT22;3996;49.674;10.716;2024-02-14T00:11:19;2.70;46.30
7902;DHT22;3996;49.674;10.716;2024-02-14T00:13:45;2.70;46.10
7902;DHT22;3996;49.674;10.716;2024-02-14T00:16:10;2.70;46.10
7902;DHT22;3996;49.674;10.716;2024-02-14T00:18:36;2.70;46.90
7902;DHT22;3996;49.674;10.716;2024-02-14T00:21:01;2.70;46.80
7902;DHT22;3996;49.674;10.716;2024-02-14T00:23:27;2.60;47.10
7902;DHT22;3996;49.674;10.716;2024-02-14T00:25:53;2.60;47.20
7902;DHT22;3996;49.674;10.716;2024-02-14T00:28:19;2.60;47.10
7902;DHT22;3996;49.674;10.716;2024-02-14T00:30:44;2.70;46.70
7902;DHT22;3996;49.674;10.716;2024-02-14T00:33:10;2.60;48.10
7902;DHT22;3996;49.674;10.716;2024-02-14T00:35:36;2.70;48.10
7902;DHT22;3996;49.674;10.716;2024-02-14T00:38:02;2.70;49.10
7902;DHT22;3996;49.674;10.716;2024-02-14T00:40:27;2.70;50.30
7902;DHT22;3996;49.674;10.716;2024-02-14T00:42:53;2.80;50.40
7902;DHT22;3996;49.674;10.716;2024-02-14T00:45:18;2.70;50.00
7902;DHT22;3996;49.674;10.716;2024-02-14T00:47:44;2.70;50.60
7902;DHT22;3996;49.674;10.716;2024-02-14T00:50:09;2.70;50.60
7902;DHT22;3996;49.674;10.716;2024-02-14T00:52:35;2.80;50.80
7902;DHT22;3996;49.674;10.716;2024-02-14T00:55:01;2.90;50.40
7902;DHT22;3996;49.674;10.716;2024-02-14T00:57:28;2.90;50.10
7902;DHT22;3996;49.674;10.716;2024-02-14T00:59:54;2.90;49.60
7902;DHT22;3996;49.674;10.716;2024-02-14T01:02:22;2.80;50.20
7902;DHT22;3996;49.674;10.716;2024-02-14T01:04:47;2.80;50.70
7902;DHT22;3996;49.674;10.716;2024-02-14T01:07:13;2.80;51.50
7902;DHT22;3996;49.674;10.716;2024-02-14T01:09:38;2.90;50.90
7902;DHT22;3996;49.674;10.716;2024-02-14T01:12:04;2.80;50.80
7902;DHT22;3996;49.674;10.716;2024-02-14T01:14:31;2.70;51.70
7902;DHT22;3996;49.674;10.716;2024-02-14T01:16:56;2.70;52.30
7902;DHT22;3996;49.674;10.716;2024-02-14T01:19:22;2.80;52.40
7902;DHT22;3996;49.674;10.716;2024-02-14T01:21:49;2.80;52.40
7902;DHT22;3996;49.674;10.716;2024-02-14T01:24:15;2.90;51.90
7902;DHT22;3996;49.674;10.716;2024-02-14T01:26:41;2.90;51.80
7902;DHT22;3996;49.674;10.716;2024-02-14T01:29:07;2.90;51.40
7902;DHT22;3996;49.674;10.716;2024-02-14T01:31:33;2.90;51.60
7902;DHT22;3996;49.674;10.716;2024-02-14T01:33:59;2.80;52.40
7902;DHT22;3996;49.674;10.716;2024-02-14T01:36:30;2.80;53.00
7902;DHT22;3996;49.674;10.716;2024-02-14T01:38:56;2.80;53.50
7902;DHT22;3996;49.674;10.716;2024-02-14T01:41:21;2.90;52.40
7902;DHT22;3996;49.674;10.716;2024-02-14T01:43:49;2.90;52.50
7902;DHT22;3996;49.674;10.716;2024-02-14T01:46:14;2.90;52.40
7902;DHT22;3996;49.674;10.716;2024-02-14T01:48:41;2.90;53.10
7902;DHT22;3996;49.674;10.716;2024-02-14T01:51:08;2.90;52.40
7902;DHT22;3996;49.674;10.716;2024-02-14T01:53:37;2.90;52.90
7902;DHT22;3996;49.674;10.716;2024-02-14T01:56:04;2.90;53.00
7902;DHT22;3996;49.674;10.716;2024-02-14T01:58:30;2.80;52.80
7902;DHT22;3996;49.674;10.716;2024-02-14T02:00:56;2.80;53.40
7902;DHT22;3996;49.674;10.716;2024-02-14T02:03:25;2.80;53.70
7902;DHT22;3996;49.674;10.716;2024-02-14T02:05:52;2.80;53.60
7902;DHT22;3996;49.674;10.716;2024-02-14T02:08:19;2.80;54.30
7902;DHT22;3996;49.674;10.716;2024-02-14T02:10:45;2.80;55.10
7902;DHT22;3996;49.674;10.716;2024-02-14T02:13:10;2.80;55.50
7902;DHT22;3996;49.674;10.716;2024-02-14T02:15:36;2.80;55.50
7902;DHT22;3996;49.674;10.716;2024-02-14T02:18:03;2.80;55.50
7902;DHT22;3996;49.674;10.716;2024-02-14T02:20:31;2.90;55.40
7902;DHT22;3996;49.674;10.716;2024-02-14T02:22:58;2.90;54.80
7902;DHT22;3996;49.674;10.716;2024-02-14T02:25:24;2.90;55.10
7902;DHT22;3996;49.674;10.716;2024-02-14T02:27:52;3.00;55.20
7902;DHT22;3996;49.674;10.716;2024-02-14T02:30:20;2.90;55.50
7902;DHT22;3996;49.674;10.716;2024-02-14T02:32:45;2.90;55.00
7902;DHT22;3996;49.674;10.716;2024-02-14T02:35:11;3.00;54.10
7902;DHT22;3996;49.674;10.716;2024-02-14T02:37:37;2.90;54.60
7902;DHT22;3996;49.674;10.716;2024-02-14T02:40:02;2.90;54.00
7902;DHT22;3996;49.674;10.716;2024-02-14T02:42:28;2.90;54.30
7902;DHT22;3996;49.674;10.716;2024-02-14T02:44:54;2.90;54.00
7902;DHT22;3996;49.674;10.716;2024-02-14T02:47:20;2.90;53.50
7902;DHT22;3996;49.674;10.716;2024-02-14T02:49:46;2.90;53.10
7902;DHT22;3996;49.674;10.716;2024-02-14T02:52:12;2.90;52.80
7902;DHT22;3996;49.674;10.716;2024-02-14T02:54:37;2.90;53.60
7902;DHT22;3996;49.674;10.716;2024-02-14T02:57:07;3.00;53.30
7902;DHT22;3996;49.674;10.716;2024-02-14T02:59:34;3.00;52.90
7902;DHT22;3996;49.674;10.716;2024-02-14T03:02:00;3.00;53.20
7902;DHT22;3996;49.674;10.716;2024-02-14T03:04:26;2.90;53.60
7902;DHT22;3996;49.674;10.716;2024-02-14T03:06:51;2.90;54.60
7902;DHT22;3996;49.674;10.716;2024-02-14T03:09:17;3.00;55.00
7902;DHT22;3996;49.674;10.716;2024-02-14T03:11:46;3.10;55.10
7902;DHT22;3996;49.674;10.716;2024-02-14T03:14:13;3.10;53.40
7902;DHT22;3996;49.674;10.716;2024-02-14T03:16:38;3.10;53.40
7902;DHT22;3996;49.674;10.716;2024-02-14T03:19:04;3.20;53.40
7902;DHT22;3996;49.674;10.716;2024-02-14T03:21:30;3.10;53.70
7902;DHT22;3996;49.674;10.716;2024-02-14T03:23:58;3.10;54.10
7902;DHT22;3996;49.674;10.716;2024-02-14T03:26:24;3.10;54.40
7902;DHT22;3996;49.674;10.716;2024-02-14T03:28:49;3.10;54.60
7902;DHT22;3996;49.674;10.716;2024-02-14T03:31:15;3.10;55.00
7902;DHT22;3996;49.674;10.716;2024-02-14T03:33:41;3.10;55.70
7902;DHT22;3996;49.674;10.716;2024-02-14T03:36:07;3.00;56.70
7902;DHT22;3996;49.674;10.716;2024-02-14T03:38:33;3.00;57.80
7902;DHT22;3996;49.674;10.716;2024-02-14T03:40:58;3.00;58.40
7902;DHT22;3996;49.674;10.716;2024-02-14T03:43:24;3.00;58.10
7902;DHT22;3996;49.674;10.716;2024-02-14T03:45:49;3.10;58.20
7902;DHT22;3996;49.674;10.716;2024-02-14T03:48:17;3.10;58.60
7902;DHT22;3996;49.674;10.716;2024-02-14T03:50:43;3.00;58.60
7902;DHT22;3996;49.674;10.716;2024-02-14T03:53:08;3.10;58.90
7902;DHT22;3996;49.674;10.716;2024-02-14T03:55:37;3.10;58.40
7902;DHT22;3996;49.674;10.716;2024-02-14T03:58:02;3.20;58.30
7902;DHT22;3996;49.674;10.716;2024-02-14T04:00:29;3.20;58.60
7902;DHT22;3996;49.674;10.716;2024-02-14T04:02:55;3.20;58.70
7902;DHT22;3996;49.674;10.716;2024-02-14T04:05:24;3.20;59.10
7902;DHT22;3996;49.674;10.716;2024-02-14T04:07:50;3.20;59.20
7902;DHT22;3996;49.674;10.716;2024-02-14T04:10:18;3.20;59.20
7902;DHT22;3996;49.674;10.716;2024-02-14T04:12:44;3.10;59.70
7902;DHT22;3996;49.674;10.716;2024-02-14T04:15:09;3.20;60.70
7902;DHT22;3996;49.674;10.716;2024-02-14T04:17:35;3.20;60.90
7902;DHT22;3996;49.674;10.716;2024-02-14T04:20:01;3.20;60.90
7902;DHT22;3996;49.674;10.716;2024-02-14T04:22:26;3.20;60.60
7902;DHT22;3996;49.674;10.716;2024-02-14T04:24:52;3.20;61.00
7902;DHT22;3996;49.674;10.716;2024-02-14T04:27:17;3.20;61.50
7902;DHT22;3996;49.674;10.716;2024-02-14T04:29:46;3.20;61.00
7902;DHT22;3996;49.674;10.716;2024-02-14T04:32:12;3.30;61.00
7902;DHT22;3996;49.674;10.716;2024-02-14T04:34:38;3.30;61.00
7902;DHT22;3996;49.674;10.716;2024-02-14T04:37:05;3.40;60.10
7902;DHT22;3996;49.674;10.716;2024-02-14T04:39:36;3.40;59.60
7902;DHT22;3996;49.674;10.716;2024-02-14T04:42:01;3.30;60.60
7902;DHT22;3996;49.674;10.716;2024-02-14T04:44:28;3.30;61.00
7902;DHT22;3996;49.674;10.716;2024-02-14T04:46:54;3.30;62.10
7902;DHT22;3996;49.674;10.716;2024-02-14T04:49:21;3.40;62.20
7902;DHT22;3996;49.674;10.716;2024-02-14T04:51:46;3.40;62.00
7902;DHT22;3996;49.674;10.716;2024-02-14T04:54:12;3.40;62.70
7902;DHT22;3996;49.674;10.716;2024-02-14T04:56:39;3.40;62.50
7902;DHT22;3996;49.674;10.716;2024-02-14T04:59:04;3.50;62.30
7902;DHT22;3996;49.674;10.716;2024-02-14T05:01:30;3.40;62.00
7902;DHT22;3996;49.674;10.716;2024-02-14T05:03:57;3.40;62.10
7902;DHT22;3996;49.674;10.716;2024-02-14T05:06:22;3.30;62.60
7902;DHT22;3996;49.674;10.716;2024-02-14T05:08:48;3.30;63.10
7902;DHT22;3996;49.674;10.716;2024-02-14T05:11:13;3.30;63.60
7902;DHT22;3996;49.674;10.716;2024-02-14T05:13:39;3.40;63.60
7902;DHT22;3996;49.674;10.716;2024-02-14T05:16:07;3.50;62.30
7902;DHT22;3996;49.674;10.716;2024-02-14T05:18:34;3.50;62.40
7902;DHT22;3996;49.674;10.716;2024-02-14T05:20:59;3.60;62.50
7902;DHT22;3996;49.674;10.716;2024-02-14T05:23:25;3.60;63.50
7902;DHT22;3996;49.674;10.716;2024-02-14T05:25:51;3.60;63.40
7902;DHT22;3996;49.674;10.716;2024-02-14T05:28:16;3.60;64.70
7902;DHT22;3996;49.674;10.716;2024-02-14T05:30:44;3.60;63.20
7902;DHT22;3996;49.674;10.716;2024-02-14T05:33:10;3.70;62.20
7902;DHT22;3996;49.674;10.716;2024-02-14T05:35:36;3.80;62.20
7902;DHT22;3996;49.674;10.716;2024-02-14T05:38:02;3.80;62.70
7902;DHT22;3996;49.674;10.716;2024-02-14T05:40:27;3.70;63.30
7902;DHT22;3996;49.674;10.716;2024-02-14T05:42:53;3.70;64.10
7902;DHT22;3996;49.674;10.716;2024-02-14T05:45:19;3.70;64.40
7902;DHT22;3996;49.674;10.716;2024-02-14T05:47:44;3.70;64.20
7902;DHT22;3996;49.674;10.716;2024-02-14T05:50:10;3.70;64.20
7902;DHT22;3996;49.674;10.716;2024-02-14T05:52:37;3.70;64.30
7902;DHT22;3996;49.674;10.716;2024-02-14T05:55:04;3.80;64.40
7902;DHT22;3996;49.674;10.716;2024-02-14T05:57:30;3.70;64.80
7902;DHT22;3996;49.674;10.716;2024-02-14T05:59:55;3.70;65.20
7902;DHT22;3996;49.674;10.716;2024-02-14T06:02:21;3.80;64.60
7902;DHT22;3996;49.674;10.716;2024-02-14T06:04:47;3.80;63.80
7902;DHT22;3996;49.674;10.716;2024-02-14T06:07:12;3.70;64.20
7902;DHT22;3996;49.674;10.716;2024-02-14T06:09:38;3.80;63.80
7902;DHT22;3996;49.674;10.716;2024-02-14T06:12:04;3.90;63.30
7902;DHT22;3996;49.674;10.716;2024-02-14T06:14:30;3.90;63.30
7902;DHT22;3996;49.674;10.716;2024-02-14T06:16:56;4.00;64.00
7902;DHT22;3996;49.674;10.716;2024-02-14T06:19:22;4.00;63.10
7902;DHT22;3996;49.674;10.716;2024-02-14T06:21:48;4.00;63.10
7902;DHT22;3996;49.674;10.716;2024-02-14T06:24:13;4.10;62.80
7902;DHT22;3996;49.674;10.716;2024-02-14T06:26:39;4.10;63.60
7902;DHT22;3996;49.674;10.716;2024-02-14T06:29:05;4.20;62.60
7902;DHT22;3996;49.674;10.716;2024-02-14T06:31:30;4.20;61.80
7902;DHT22;3996;49.674;10.716;2024-02-14T06:33:56;4.30;61.20
7902;DHT22;3996;49.674;10.716;2024-02-14T06:36:22;4.30;61.10
7902;DHT22;3996;49.674;10.716;2024-02-14T06:38:47;4.30;61.80
7902;DHT22;3996;49.674;10.716;2024-02-14T06:41:13;4.30;61.60
7902;DHT22;3996;49.674;10.716;2024-02-14T06:43:38;4.40;60.50
7902;DHT22;3996;49.674;10.716;2024-02-14T06:46:05;4.40;60.10
7902;DHT22;3996;49.674;10.716;2024-02-14T06:48:31;4.50;58.50
7902;DHT22;3996;49.674;10.716;2024-02-14T06:50:57;4.50;59.10
7902;DHT22;3996;49.674;10.716;2024-02-14T06:53:22;4.60;59.90
7902;DHT22;3996;49.674;10.716;2024-02-14T06:55:48;4.60;57.80
7902;DHT22;3996;49.674;10.716;2024-02-14T06:58:14;4.60;57.10
7902;DHT22;3996;49.674;10.716;2024-02-14T07:00:39;4.60;57.50
7902;DHT22;3996;49.674;10.716;2024-02-14T07:03:05;4.50;59.10
7902;DHT22;3996;49.674;10.716;2024-02-14T07:05:31;4.50;61.00
7902;DHT22;3996;49.674;10.716;2024-02-14T07:07:56;4.50;61.50
7902;DHT22;3996;49.674;10.716;2024-02-14T07:10:22;4.40;62.20
7902;DHT22;3996;49.674;10.716;2024-02-14T07:12:49;4.50;63.50
7902;DHT22;3996;49.674;10.716;2024-02-14T07:15:14;4.60;63.80
7902;DHT22;3996;49.674;10.716;2024-02-14T07:17:40;4.60;62.80
7902;DHT22;3996;49.674;10.716;2024-02-14T07:20:06;4.60;62.80
7902;DHT22;3996;49.674;10.716;2024-02-14T07:22:35;4.70;64.00
7902;DHT22;3996;49.674;10.716;2024-02-14T07:25:02;4.80;63.30
7902;DHT22;3996;49.674;10.716;2024-02-14T07:27:27;4.90;63.00
7902;DHT22;3996;49.674;10.716;2024-02-14T07:29:53;4.90;61.70
7902;DHT22;3996;49.674;10.716;2024-02-14T07:32:19;5.00;62.50
7902;DHT22;3996;49.674;10.716;2024-02-14T07:34:45;5.00;61.60
7902;DHT22;3996;49.674;10.716;2024-02-14T07:37:11;5.10;62.50
7902;DHT22;3996;49.674;10.716;2024-02-14T07:39:37;5.10;60.30
7902;DHT22;3996;49.674;10.716;2024-02-14T07:42:03;5.20;60.80
7902;DHT22;3996;49.674;10.716;2024-02-14T07:44:29;5.30;59.10
7902;DHT22;3996;49.674;10.716;2024-02-14T07:46:54;5.40;59.60
7902;DHT22;3996;49.674;10.716;2024-02-14T07:49:20;5.50;57.70
7902;DHT22;3996;49.674;10.716;2024-02-14T07:51:46;5.60;55.40
7902;DHT22;3996;49.674;10.716;2024-02-14T07:54:12;5.70;54.90
7902;DHT22;3996;49.674;10.716;2024-02-14T07:56:37;5.70;53.60
7902;DHT22;3996;49.674;10.716;2024-02-14T07:59:03;5.70;52.50
7902;DHT22;3996;49.674;10.716;2024-02-14T08:01:30;5.70;53.20
7902;DHT22;3996;49.674;10.716;2024-02-14T08:03:56;5.80;53.50
7902;DHT22;3996;49.674;10.716;2024-02-14T08:06:22;5.80;53.60
7902;DHT22;3996;49.674;10.716;2024-02-14T08:08:47;5.80;53.20
7902;DHT22;3996;49.674;10.716;2024-02-14T08:11:17;5.80;52.20
7902;DHT22;3996;49.674;10.716;2024-02-14T08:13:43;5.80;52.80
7902;DHT22;3996;49.674;10.716;2024-02-14T08:16:08;5.90;52.90
7902;DHT22;3996;49.674;10.716;2024-02-14T08:18:34;5.80;53.30
7902;DHT22;3996;49.674;10.716;2024-02-14T08:21:00;5.80;54.10
7902;DHT22;3996;49.674;10.716;2024-02-14T08:23:26;5.90;56.80
7902;DHT22;3996;49.674;10.716;2024-02-14T08:25:51;5.90;57.70
7902;DHT22;3996;49.674;10.716;2024-02-14T08:28:17;6.00;58.50
7902;DHT22;3996;49.674;10.716;2024-02-14T08:30:44;6.00;58.20
7902;DHT22;3996;49.674;10.716;2024-02-14T08:33:09;6.00;57.10
7902;DHT22;3996;49.674;10.716;2024-02-14T08:35:36;6.10;57.20
7902;DHT22;3996;49.674;10.716;2024-02-14T08:38:01;6.10;56.80
7902;DHT22;3996;49.674;10.716;2024-02-14T08:40:27;6.20;56.70
7902;DHT22;3996;49.674;10.716;2024-02-14T08:42:53;6.20;57.30
7902;DHT22;3996;49.674;10.716;2024-02-14T08:45:18;6.20;58.70
7902;DHT22;3996;49.674;10.716;2024-02-14T08:47:45;6.20;58.80
7902;DHT22;3996;49.674;10.716;2024-02-14T08:50:10;6.20;59.70
7902;DHT22;3996;49.674;10.716;2024-02-14T08:52:36;6.20;59.60
7902;DHT22;3996;49.674;10.716;2024-02-14T08:55:03;6.20;60.80
7902;DHT22;3996;49.674;10.716;2024-02-14T08:57:29;6.20;61.90
7902;DHT22;3996;49.674;10.716;2024-02-14T08:59:57;6.30;61.70
7902;DHT22;3996;49.674;10.716;2024-02-14T09:02:22;6.30;61.30
7902;DHT22;3996;49.674;10.716;2024-02-14T09:04:48;6.40;61.00
7902;DHT22;3996;49.674;10.716;2024-02-14T09:07:15;6.50;61.00
7902;DHT22;3996;49.674;10.716;2024-02-14T09:09:41;6.70;60.60
7902;DHT22;3996;49.674;10.716;2024-02-14T09:12:07;6.80;60.00
7902;DHT22;3996;49.674;10.716;2024-02-14T09:14:33;6.80;57.00
7902;DHT22;3996;49.674;10.716;2024-02-14T09:16:58;6.90;56.40
7902;DHT22;3996;49.674;10.716;2024-02-14T09:19:24;7.00;56.70
7902;DHT22;3996;49.674;10.716;2024-02-14T09:21:51;7.10;56.40
7902;DHT22;3996;49.674;10.716;2024-02-14T09:24:16;7.20;56.60
7902;DHT22;3996;49.674;10.716;2024-02-14T09:26:42;7.30;56.40
7902;DHT22;3996;49.674;10.716;2024-02-14T09:29:08;7.40;56.10
7902;DHT22;3996;49.674;10.716;2024-02-14T09:31:36;7.50;56.50
7902;DHT22;3996;49.674;10.716;2024-02-14T09:34:02;7.60;56.40
7902;DHT22;3996;49.674;10.716;2024-02-14T09:36:28;7.70;55.00
7902;DHT22;3996;49.674;10.716;2024-02-14T09:38:54;7.80;52.50
7902;DHT22;3996;49.674;10.716;2024-02-14T09:41:36;7.90;51.20
7902;DHT22;3996;49.674;10.716;2024-02-14T09:44:03;7.90;48.40
7902;DHT22;3996;49.674;10.716;2024-02-14T09:46:29;7.90;48.80
7902;DHT22;3996;49.674;10.716;2024-02-14T09:48:56;7.90;49.00
7902;DHT22;3996;49.674;10.716;2024-02-14T09:51:24;8.00;48.40
7902;DHT22;3996;49.674;10.716;2024-02-14T09:53:50;8.00;48.50
7902;DHT22;3996;49.674;10.716;2024-02-14T09:56:19;8.10;47.20
7902;DHT22;3996;49.674;10.716;2024-02-14T09:58:49;8.20;47.70
7902;DHT22;3996;49.674;10.716;2024-02-14T10:01:22;8.30;47.80
7902;DHT22;3996;49.674;10.716;2024-02-14T10:03:53;8.40;45.90
7902;DHT22;3996;49.674;10.716;2024-02-14T10:06:19;8.50;42.90
7902;DHT22;3996;49.674;10.716;2024-02-14T10:08:49;8.60;43.60
7902;DHT22;3996;49.674;10.716;2024-02-14T10:11:19;8.60;43.60
7902;DHT22;3996;49.674;10.716;2024-02-14T10:13:49;8.70;43.60
7902;DHT22;3996;49.674;10.716;2024-02-14T10:16:19;8.70;43.00
7902;DHT22;3996;49.674;10.716;2024-02-14T10:18:45;8.70;42.20
7902;DHT22;3996;49.674;10.716;2024-02-14T10:21:15;8.80;40.50
7902;DHT22;3996;49.674;10.716;2024-02-14T10:23:45;8.80;40.50
7902;DHT22;3996;49.674;10.716;2024-02-14T10:26:15;8.80;40.50
7902;DHT22;3996;49.674;10.716;2024-02-14T10:28:45;8.80;39.80
7902;DHT22;3996;49.674;10.716;2024-02-14T10:31:11;8.80;39.70
7902;DHT22;3996;49.674;10.716;2024-02-14T10:33:37;8.80;40.50
7902;DHT22;3996;49.674;10.716;2024-02-14T10:36:06;8.80;41.10
7902;DHT22;3996;49.674;10.716;2024-02-14T10:38:32;8.80;42.40
7902;DHT22;3996;49.674;10.716;2024-02-14T10:40:59;8.80;42.90
7902;DHT22;3996;49.674;10.716;2024-02-14T10:43:26;8.80;43.50
7902;DHT22;3996;49.674;10.716;2024-02-14T10:45:53;8.80;45.10
7902;DHT22;3996;49.674;10.716;2024-02-14T10:48:22;8.80;45.40
7902;DHT22;3996;49.674;10.716;2024-02-14T10:50:53;8.80;45.90
7902;DHT22;3996;49.674;10.716;2024-02-14T10:53:18;8.80;46.50
7902;DHT22;3996;49.674;10.716;2024-02-14T10:55:48;8.80;45.50
7902;DHT22;3996;49.674;10.716;2024-02-14T10:58:16;8.80;45.50
7902;DHT22;3996;49.674;10.716;2024-02-14T11:00:43;8.80;46.20
7902;DHT22;3996;49.674;10.716;2024-02-14T11:03:09;8.90;46.80
7902;DHT22;3996;49.674;10.716;2024-02-14T11:05:45;8.80;47.20
7902;DHT22;3996;49.674;10.716;2024-02-14T11:08:14;8.90;46.90
7902;DHT22;3996;49.674;10.716;2024-02-14T11:10:40;8.90;47.40
7902;DHT22;3996;49.674;10.716;2024-02-14T11:13:11;8.90;47.20
7902;DHT22;3996;49.674;10.716;2024-02-14T11:15:37;9.00;47.10
7902;DHT22;3996;49.674;10.716;2024-02-14T11:18:05;9.00;47.20
7902;DHT22;3996;49.674;10.716;2024-02-14T11:20:34;9.00;47.10
7902;DHT22;3996;49.674;10.716;2024-02-14T11:23:04;9.10;47.20
7902;DHT22;3996;49.674;10.716;2024-02-14T11:25:32;9.10;46.60
7902;DHT22;3996;49.674;10.716;2024-02-14T11:28:00;9.10;46.40
7902;DHT22;3996;49.674;10.716;2024-02-14T11:30:34;9.20;47.20
7902;DHT22;3996;49.674;10.716;2024-02-14T11:33:22;9.30;46.60
7902;DHT22;3996;49.674;10.716;2024-02-14T11:35:50;9.40;46.80
7902;DHT22;3996;49.674;10.716;2024-02-14T11:38:17;9.40;46.00
7902;DHT22;3996;49.674;10.716;2024-02-14T11:40:43;9.50;46.40
7902;DHT22;3996;49.674;10.716;2024-02-14T11:43:17;9.50;47.00
7902;DHT22;3996;49.674;10.716;2024-02-14T11:45:44;9.50;46.70
7902;DHT22;3996;49.674;10.716;2024-02-14T11:48:14;9.50;47.40
7902;DHT22;3996;49.674;10.716;2024-02-14T11:50:41;9.50;46.40
7902;DHT22;3996;49.674;10.716;2024-02-14T11:53:07;9.40;46.10
7902;DHT22;3996;49.674;10.716;2024-02-14T11:55:40;9.50;46.60
7902;DHT22;3996;49.674;10.716;2024-02-14T11:58:10;9.50;47.20
7902;DHT22;3996;49.674;10.716;2024-02-14T12:00:46;9.50;47.00
7902;DHT22;3996;49.674;10.716;2024-02-14T12:03:15;9.40;46.40
7902;DHT22;3996;49.674;10.716;2024-02-14T12:05:40;9.40;46.70
7902;DHT22;3996;49.674;10.716;2024-02-14T12:08:08;9.50;46.40
7902;DHT22;3996;49.674;10.716;2024-02-14T12:10:37;9.50;47.00
7902;DHT22;3996;49.674;10.716;2024-02-14T12:13:09;9.50;46.90
7902;DHT22;3996;49.674;10.716;2024-02-14T12:15:39;9.60;48.00
7902;DHT22;3996;49.674;10.716;2024-02-14T12:18:05;9.60;49.80
7902;DHT22;3996;49.674;10.716;2024-02-14T12:20:31;9.60;50.10
7902;DHT22;3996;49.674;10.716;2024-02-14T12:22:58;9.60;51.70
7902;DHT22;3996;49.674;10.716;2024-02-14T12:25:25;9.60;52.40
7902;DHT22;3996;49.674;10.716;2024-02-14T12:27:51;9.50;52.20
7902;DHT22;3996;49.674;10.716;2024-02-14T12:30:18;9.50;52.60
7902;DHT22;3996;49.674;10.716;2024-02-14T12:32:58;9.60;52.80
7902;DHT22;3996;49.674;10.716;2024-02-14T12:35:23;9.60;53.30
7902;DHT22;3996;49.674;10.716;2024-02-14T12:37:49;9.60;54.00
7902;DHT22;3996;49.674;10.716;2024-02-14T12:40:14;9.70;54.00
7902;DHT22;3996;49.674;10.716;2024-02-14T12:42:40;9.70;53.80
7902;DHT22;3996;49.674;10.716;2024-02-14T12:45:06;9.70;53.30
7902;DHT22;3996;49.674;10.716;2024-02-14T12:47:32;9.70;52.90
7902;DHT22;3996;49.674;10.716;2024-02-14T12:50:00;9.70;53.00
7902;DHT22;3996;49.674;10.716;2024-02-14T12:52:26;9.70;53.00
7902;DHT22;3996;49.674;10.716;2024-02-14T12:54:51;9.80;52.70
7902;DHT22;3996;49.674;10.716;2024-02-14T12:57:17;9.80;52.90
7902;DHT22;3996;49.674;10.716;2024-02-14T12:59:44;9.90;52.20
7902;DHT22;3996;49.674;10.716;2024-02-14T13:02:14;9.90;51.70
7902;DHT22;3996;49.674;10.716;2024-02-14T13:04:39;10.00;50.70
7902;DHT22;3996;49.674;10.716;2024-02-14T13:07:05;10.00;50.40
7902;DHT22;3996;49.674;10.716;2024-02-14T13:09:31;10.00;49.20
7902;DHT22;3996;49.674;10.716;2024-02-14T13:11:56;10.00;49.20
7902;DHT22;3996;49.674;10.716;2024-02-14T13:14:23;10.00;49.20
7902;DHT22;3996;49.674;10.716;2024-02-14T13:16:48;10.00;50.20
7902;DHT22;3996;49.674;10.716;2024-02-14T13:19:17;10.00;49.50
7902;DHT22;3996;49.674;10.716;2024-02-14T13:21:42;10.00;49.20
7902;DHT22;3996;49.674;10.716;2024-02-14T13:24:11;9.90;50.10
7902;DHT22;3996;49.674;10.716;2024-02-14T13:26:38;9.90;50.10
7902;DHT22;3996;49.674;10.716;2024-02-14T13:29:03;9.90;50.10
7902;DHT22;3996;49.674;10.716;2024-02-14T13:31:29;9.90;49.70
7902;DHT22;3996;49.674;10.716;2024-02-14T13:33:55;9.90;50.10
7902;DHT22;3996;49.674;10.716;2024-02-14T13:36:20;9.90;49.70
7902;DHT22;3996;49.674;10.716;2024-02-14T13:38:49;10.00;48.20
7902;DHT22;3996;49.674;10.716;2024-02-14T13:41:14;9.90;49.20
7902;DHT22;3996;49.674;10.716;2024-02-14T13:43:40;10.00;49.20
7902;DHT22;3996;49.674;10.716;2024-02-14T13:46:07;10.00;49.80
7902;DHT22;3996;49.674;10.716;2024-02-14T13:48:34;10.00;49.20
7902;DHT22;3996;49.674;10.716;2024-02-14T13:51:00;10.00;48.90
7902;DHT22;3996;49.674;10.716;2024-02-14T13:53:27;10.00;48.80
7902;DHT22;3996;49.674;10.716;2024-02-14T13:55:53;10.00;48.50
7902;DHT22;3996;49.674;10.716;2024-02-14T13:58:18;10.00;48.40
7902;DHT22;3996;49.674;10.716;2024-02-14T14:00:45;10.00;48.50
7902;DHT22;3996;49.674;10.716;2024-02-14T14:03:10;10.00;48.60
7902;DHT22;3996;49.674;10.716;2024-02-14T14:05:37;10.10;49.30
7902;DHT22;3996;49.674;10.716;2024-02-14T14:08:02;10.10;49.30
7902;DHT22;3996;49.674;10.716;2024-02-14T14:10:28;10.10;50.10
7902;DHT22;3996;49.674;10.716;2024-02-14T14:12:54;10.20;50.90
7902;DHT22;3996;49.674;10.716;2024-02-14T14:15:20;10.30;50.40
7902;DHT22;3996;49.674;10.716;2024-02-14T14:17:47;10.30;50.70
7902;DHT22;3996;49.674;10.716;2024-02-14T14:20:16;10.30;50.20
7902;DHT22;3996;49.674;10.716;2024-02-14T14:22:43;10.40;51.00
7902;DHT22;3996;49.674;10.716;2024-02-14T14:25:08;10.40;51.10
7902;DHT22;3996;49.674;10.716;2024-02-14T14:27:34;10.30;51.10
7902;DHT22;3996;49.674;10.716;2024-02-14T14:30:00;10.30;52.10
7902;DHT22;3996;49.674;10.716;2024-02-14T14:32:26;10.30;51.80
7902;DHT22;3996;49.674;10.716;2024-02-14T14:34:51;10.20;52.10
7902;DHT22;3996;49.674;10.716;2024-02-14T14:37:17;10.20;53.00
7902;DHT22;3996;49.674;10.716;2024-02-14T14:39:42;10.20;52.70
7902;DHT22;3996;49.674;10.716;2024-02-14T14:42:10;10.20;53.50
7902;DHT22;3996;49.674;10.716;2024-02-14T14:44:35;10.20;54.40
7902;DHT22;3996;49.674;10.716;2024-02-14T14:47:02;10.20;55.00
7902;DHT22;3996;49.674;10.716;2024-02-14T14:49:27;10.20;52.70
7902;DHT22;3996;49.674;10.716;2024-02-14T14:51:53;10.20;51.60
7902;DHT22;3996;49.674;10.716;2024-02-14T14:54:19;10.20;52.20
7902;DHT22;3996;49.674;10.716;2024-02-14T14:56:45;10.20;51.60
7902;DHT22;3996;49.674;10.716;2024-02-14T14:59:11;10.20;51.60
7902;DHT22;3996;49.674;10.716;2024-02-14T15:01:37;10.20;51.40
7902;DHT22;3996;49.674;10.716;2024-02-14T15:04:03;10.20;51.70
7902;DHT22;3996;49.674;10.716;2024-02-14T15:06:29;10.20;51.60
7902;DHT22;3996;49.674;10.716;2024-02-14T15:08:55;10.20;52.00
7902;DHT22;3996;49.674;10.716;2024-02-14T15:11:21;10.20;51.00
7902;DHT22;3996;49.674;10.716;2024-02-14T15:13:47;10.10;51.00
7902;DHT22;3996;49.674;10.716;2024-02-14T15:16:13;10.10;51.50
7902;DHT22;3996;49.674;10.716;2024-02-14T15:18:39;10.10;51.90
7902;DHT22;3996;49.674;10.716;2024-02-14T15:21:07;10.10;52.40
7902;DHT22;3996;49.674;10.716;2024-02-14T15:23:33;10.10;52.60
7902;DHT22;3996;49.674;10.716;2024-02-14T15:25:58;10.10;52.70
7902;DHT22;3996;49.674;10.716;2024-02-14T15:28:32;10.10;53.00
7902;DHT22;3996;49.674;10.716;2024-02-14T15:31:00;10.00;53.40
7902;DHT22;3996;49.674;10.716;2024-02-14T15:33:43;10.00;53.60
7902;DHT22;3996;49.674;10.716;2024-02-14T15:36:10;10.00;54.60
7902;DHT22;3996;49.674;10.716;2024-02-14T15:38:41;10.00;55.10
7902;DHT22;3996;49.674;10.716;2024-02-14T15:41:07;10.00;55.10
7902;DHT22;3996;49.674;10.716;2024-02-14T15:43:35;10.00;54.90
7902;DHT22;3996;49.674;10.716;2024-02-14T15:46:01;10.00;54.90
7902;DHT22;3996;49.674;10.716;2024-02-14T15:48:26;10.00;54.80
7902;DHT22;3996;49.674;10.716;2024-02-14T15:50:55;9.90;56.40
7902;DHT22;3996;49.674;10.716;2024-02-14T15:53:20;9.90;57.20
7902;DHT22;3996;49.674;10.716;2024-02-14T15:55:46;9.80;57.40